sensor_id;sensor_type;location;lat;lon;timestamp;pressure;altitude;pressure_sealevel;temperature;humidity
9740;BME280;4909;42.680;26.324;2023-05-12T00:02:20;99049.63;;;10.25;76.96
9740;BME280;4909;42.680;26.324;2023-05-12T00:04:47;99063.66;;;10.27;77.13
9740;BME280;4909;42.680;26.324;2023-05-12T00:07:14;99055.00;;;10.22;77.60
9740;BME280;4909;42.680;26.324;2023-05-12T00:09:41;99063.13;;;10.42;76.91
9740;BME280;4909;42.680;26.324;2023-05-12T00:12:08;99069.41;;;10.40;76.94
9740;BME280;4909;42.680;26.324;2023-05-12T00:14:35;99066.97;;;10.34;76.71
9740;BME280;4909;42.680;26.324;2023-05-12T00:17:04;99054.09;;;10.23;76.87
9740;BME280;4909;42.680;26.324;2023-05-12T00:19:31;99068.63;;;10.36;76.57
9740;BME280;4909;42.680;26.324;2023-05-12T00:21:59;99062.06;;;10.23;76.60
9740;BME280;4909;42.680;26.324;2023-05-12T00:24:25;99063.84;;;10.23;76.12
9740;BME280;4909;42.680;26.324;2023-05-12T00:26:52;99060.56;;;10.16;77.10
9740;BME280;4909;42.680;26.324;2023-05-12T00:29:19;99055.28;;;10.15;77.16
9740;BME280;4909;42.680;26.324;2023-05-12T00:31:46;99058.63;;;10.21;77.01
9740;BME280;4909;42.680;26.324;2023-05-12T00:34:14;99058.72;;;10.18;77.02
9740;BME280;4909;42.680;26.324;2023-05-12T00:36:41;99039.56;;;10.09;76.53
9740;BME280;4909;42.680;26.324;2023-05-12T00:39:08;99064.16;;;10.14;76.73
9740;BME280;4909;42.680;26.324;2023-05-12T00:41:35;99058.75;;;10.17;76.89
9740;BME280;4909;42.680;26.324;2023-05-12T00:44:02;99055.53;;;10.32;76.19
9740;BME280;4909;42.680;26.324;2023-05-12T00:46:29;99053.44;;;10.17;76.12
9740;BME280;4909;42.680;26.324;2023-05-12T00:48:56;99035.47;;;10.00;76.47
9740;BME280;4909;42.680;26.324;2023-05-12T00:51:25;99051.44;;;9.98;77.11
9740;BME280;4909;42.680;26.324;2023-05-12T00:53:52;99057.00;;;9.91;77.28
9740;BME280;4909;42.680;26.324;2023-05-12T00:56:20;99035.97;;;9.86;76.96
9740;BME280;4909;42.680;26.324;2023-05-12T00:58:47;99053.22;;;9.98;77.64
9740;BME280;4909;42.680;26.324;2023-05-12T01:01:14;99037.84;;;10.08;77.02
9740;BME280;4909;42.680;26.324;2023-05-12T01:03:42;99044.84;;;10.10;76.42
9740;BME280;4909;42.680;26.324;2023-05-12T01:06:12;99046.50;;;10.13;76.16
9740;BME280;4909;42.680;26.324;2023-05-12T01:08:42;99057.84;;;10.18;76.33
9740;BME280;4909;42.680;26.324;2023-05-12T01:11:09;99049.97;;;10.15;75.95
9740;BME280;4909;42.680;26.324;2023-05-12T01:13:36;99042.38;;;10.04;75.75
9740;BME280;4909;42.680;26.324;2023-05-12T01:16:05;99052.13;;;10.03;76.16
9740;BME280;4909;42.680;26.324;2023-05-12T01:18:37;99052.34;;;9.97;76.47
9740;BME280;4909;42.680;26.324;2023-05-12T01:21:04;99045.31;;;9.96;76.31
9740;BME280;4909;42.680;26.324;2023-05-12T01:23:34;99052.28;;;9.74;77.37
9740;BME280;4909;42.680;26.324;2023-05-12T01:26:05;99050.50;;;9.75;77.21
9740;BME280;4909;42.680;26.324;2023-05-12T01:28:34;99027.00;;;9.64;77.74
9740;BME280;4909;42.680;26.324;2023-05-12T01:31:02;99055.22;;;9.91;76.55
9740;BME280;4909;42.680;26.324;2023-05-12T01:33:29;99052.47;;;9.94;76.11
9740;BME280;4909;42.680;26.324;2023-05-12T01:35:56;99039.53;;;9.85;76.01
9740;BME280;4909;42.680;26.324;2023-05-12T01:38:23;99032.69;;;9.78;76.44
9740;BME280;4909;42.680;26.324;2023-05-12T01:40:50;99038.25;;;9.97;75.95
9740;BME280;4909;42.680;26.324;2023-05-12T01:43:18;99051.06;;;10.09;75.69
9740;BME280;4909;42.680;26.324;2023-05-12T01:45:45;99022.91;;;9.80;76.07
9740;BME280;4909;42.680;26.324;2023-05-12T01:48:11;99051.22;;;10.04;76.16
9740;BME280;4909;42.680;26.324;2023-05-12T01:50:38;99037.38;;;9.96;75.81
9740;BME280;4909;42.680;26.324;2023-05-12T01:53:06;99035.25;;;9.81;76.16
9740;BME280;4909;42.680;26.324;2023-05-12T01:55:34;99043.06;;;9.86;76.21
9740;BME280;4909;42.680;26.324;2023-05-12T01:58:01;99027.94;;;9.88;76.42
9740;BME280;4909;42.680;26.324;2023-05-12T02:00:29;99032.97;;;9.71;76.62
9740;BME280;4909;42.680;26.324;2023-05-12T02:02:56;99043.00;;;9.63;77.43
9740;BME280;4909;42.680;26.324;2023-05-12T02:05:23;99031.06;;;9.74;77.26
9740;BME280;4909;42.680;26.324;2023-05-12T02:07:50;99028.34;;;9.77;76.85
9740;BME280;4909;42.680;26.324;2023-05-12T02:10:17;99029.56;;;9.67;77.22
9740;BME280;4909;42.680;26.324;2023-05-12T02:12:43;99010.31;;;9.62;77.26
9740;BME280;4909;42.680;26.324;2023-05-12T02:15:10;99030.22;;;9.74;77.35
9740;BME280;4909;42.680;26.324;2023-05-12T02:17:38;99014.78;;;9.60;77.45
9740;BME280;4909;42.680;26.324;2023-05-12T02:20:06;99040.78;;;9.75;77.30
9740;BME280;4909;42.680;26.324;2023-05-12T02:22:33;99023.38;;;9.68;76.94
9740;BME280;4909;42.680;26.324;2023-05-12T02:25:00;99032.41;;;9.87;77.01
9740;BME280;4909;42.680;26.324;2023-05-12T02:27:27;99033.25;;;9.88;76.96
9740;BME280;4909;42.680;26.324;2023-05-12T02:29:56;99026.13;;;9.90;77.16
9740;BME280;4909;42.680;26.324;2023-05-12T02:32:23;99028.38;;;10.00;76.49
9740;BME280;4909;42.680;26.324;2023-05-12T02:34:54;99025.28;;;9.88;76.84
9740;BME280;4909;42.680;26.324;2023-05-12T02:37:20;99001.38;;;9.89;76.81
9740;BME280;4909;42.680;26.324;2023-05-12T02:39:47;99024.88;;;10.00;76.48
9740;BME280;4909;42.680;26.324;2023-05-12T02:42:14;99029.31;;;9.99;76.27
9740;BME280;4909;42.680;26.324;2023-05-12T02:44:41;99034.94;;;9.90;76.87
9740;BME280;4909;42.680;26.324;2023-05-12T02:47:08;99035.59;;;9.72;76.86
9740;BME280;4909;42.680;26.324;2023-05-12T02:49:34;99026.56;;;9.78;76.86
9740;BME280;4909;42.680;26.324;2023-05-12T02:52:04;99042.19;;;9.85;76.62
9740;BME280;4909;42.680;26.324;2023-05-12T02:54:31;99042.50;;;9.76;77.05
9740;BME280;4909;42.680;26.324;2023-05-12T02:56:57;99003.88;;;9.69;76.49
9740;BME280;4909;42.680;26.324;2023-05-12T02:59:24;99054.44;;;9.88;76.88
9740;BME280;4909;42.680;26.324;2023-05-12T03:01:51;99047.66;;;9.81;76.62
9740;BME280;4909;42.680;26.324;2023-05-12T03:04:18;99045.66;;;9.87;76.80
9740;BME280;4909;42.680;26.324;2023-05-12T03:06:45;99045.88;;;9.81;76.43
9740;BME280;4909;42.680;26.324;2023-05-12T03:09:13;99041.31;;;9.85;76.71
9740;BME280;4909;42.680;26.324;2023-05-12T03:11:41;99054.94;;;9.74;77.19
9740;BME280;4909;42.680;26.324;2023-05-12T03:14:07;99061.03;;;9.78;77.34
9740;BME280;4909;42.680;26.324;2023-05-12T03:16:34;99041.53;;;9.79;77.73
9740;BME280;4909;42.680;26.324;2023-05-12T03:19:01;99052.66;;;9.88;76.60
9740;BME280;4909;42.680;26.324;2023-05-12T03:21:29;99059.03;;;9.83;76.77
9740;BME280;4909;42.680;26.324;2023-05-12T03:23:56;99054.38;;;9.91;76.60
9740;BME280;4909;42.680;26.324;2023-05-12T03:26:24;99056.56;;;10.03;76.36
9740;BME280;4909;42.680;26.324;2023-05-12T03:28:51;99043.47;;;9.98;76.58
9740;BME280;4909;42.680;26.324;2023-05-12T03:31:18;99046.50;;;9.88;76.51
9740;BME280;4909;42.680;26.324;2023-05-12T03:33:44;99061.25;;;9.96;76.25
9740;BME280;4909;42.680;26.324;2023-05-12T03:36:11;99045.09;;;10.02;76.73
9740;BME280;4909;42.680;26.324;2023-05-12T03:38:38;99062.72;;;10.30;75.68
9740;BME280;4909;42.680;26.324;2023-05-12T03:41:05;99064.53;;;10.28;75.78
9740;BME280;4909;42.680;26.324;2023-05-12T03:43:33;99053.22;;;10.23;74.91
9740;BME280;4909;42.680;26.324;2023-05-12T03:46:01;99070.53;;;10.33;75.12
9740;BME280;4909;42.680;26.324;2023-05-12T03:48:27;99078.63;;;10.30;75.05
9740;BME280;4909;42.680;26.324;2023-05-12T03:50:54;99072.97;;;10.16;75.92
9740;BME280;4909;42.680;26.324;2023-05-12T03:53:21;99078.03;;;10.22;75.82
9740;BME280;4909;42.680;26.324;2023-05-12T03:55:48;99076.84;;;10.30;75.41
9740;BME280;4909;42.680;26.324;2023-05-12T03:58:14;99072.41;;;10.31;74.83
9740;BME280;4909;42.680;26.324;2023-05-12T04:00:43;99064.28;;;10.35;74.59
9740;BME280;4909;42.680;26.324;2023-05-12T04:03:11;99088.09;;;10.60;74.34
9740;BME280;4909;42.680;26.324;2023-05-12T04:05:37;99087.91;;;10.41;74.76
9740;BME280;4909;42.680;26.324;2023-05-12T04:08:04;99080.41;;;10.29;75.62
9740;BME280;4909;42.680;26.324;2023-05-12T04:10:31;99080.72;;;10.45;75.06
9740;BME280;4909;42.680;26.324;2023-05-12T04:12:58;99081.69;;;10.66;74.17
9740;BME280;4909;42.680;26.324;2023-05-12T04:15:25;99077.34;;;10.65;74.11
9740;BME280;4909;42.680;26.324;2023-05-12T04:17:53;99086.78;;;10.72;73.74
9740;BME280;4909;42.680;26.324;2023-05-12T04:20:20;99077.03;;;10.72;73.41
9740;BME280;4909;42.680;26.324;2023-05-12T04:22:47;99088.34;;;10.77;73.38
9740;BME280;4909;42.680;26.324;2023-05-12T04:25:16;99087.75;;;10.93;73.43
9740;BME280;4909;42.680;26.324;2023-05-12T04:27:42;99092.97;;;10.94;73.22
9740;BME280;4909;42.680;26.324;2023-05-12T04:30:09;99069.41;;;10.86;73.47
9740;BME280;4909;42.680;26.324;2023-05-12T04:32:55;99082.72;;;11.08;73.32
9740;BME280;4909;42.680;26.324;2023-05-12T04:35:21;99092.66;;;11.25;72.59
9740;BME280;4909;42.680;26.324;2023-05-12T04:37:48;99073.81;;;11.09;72.33
9740;BME280;4909;42.680;26.324;2023-05-12T04:40:15;99089.69;;;11.11;72.99
9740;BME280;4909;42.680;26.324;2023-05-12T04:42:42;99084.56;;;11.28;73.00
9740;BME280;4909;42.680;26.324;2023-05-12T04:45:09;99090.31;;;11.39;72.52
9740;BME280;4909;42.680;26.324;2023-05-12T04:47:36;99100.31;;;11.54;72.27
9740;BME280;4909;42.680;26.324;2023-05-12T04:50:06;99094.22;;;11.74;71.98
9740;BME280;4909;42.680;26.324;2023-05-12T04:52:33;99090.31;;;11.83;71.38
9740;BME280;4909;42.680;26.324;2023-05-12T04:54:59;99095.72;;;11.81;71.44
9740;BME280;4909;42.680;26.324;2023-05-12T04:57:26;99094.72;;;12.04;71.44
9740;BME280;4909;42.680;26.324;2023-05-12T04:59:53;99091.59;;;12.14;70.52
9740;BME280;4909;42.680;26.324;2023-05-12T05:02:20;99100.44;;;12.15;69.99
9740;BME280;4909;42.680;26.324;2023-05-12T05:04:47;99097.59;;;12.19;69.14
9740;BME280;4909;42.680;26.324;2023-05-12T05:07:15;99102.81;;;12.41;70.08
9740;BME280;4909;42.680;26.324;2023-05-12T05:09:42;99081.47;;;12.43;69.87
9740;BME280;4909;42.680;26.324;2023-05-12T05:12:09;99091.97;;;12.64;69.41
9740;BME280;4909;42.680;26.324;2023-05-12T05:14:35;99082.78;;;12.72;68.44
9740;BME280;4909;42.680;26.324;2023-05-12T05:17:03;99096.50;;;12.83;68.45
9740;BME280;4909;42.680;26.324;2023-05-12T05:19:31;99097.53;;;12.79;67.81
9740;BME280;4909;42.680;26.324;2023-05-12T05:21:58;99075.00;;;12.67;68.85
9740;BME280;4909;42.680;26.324;2023-05-12T05:24:26;99096.34;;;12.86;69.44
9740;BME280;4909;42.680;26.324;2023-05-12T05:26:53;99084.97;;;13.01;68.70
9740;BME280;4909;42.680;26.324;2023-05-12T05:29:19;99091.97;;;13.22;68.09
9740;BME280;4909;42.680;26.324;2023-05-12T05:31:46;99094.13;;;13.33;66.40
9740;BME280;4909;42.680;26.324;2023-05-12T05:34:13;99086.75;;;13.38;66.58
9740;BME280;4909;42.680;26.324;2023-05-12T05:36:40;99091.81;;;13.44;65.53
9740;BME280;4909;42.680;26.324;2023-05-12T05:39:07;99099.06;;;13.59;65.72
9740;BME280;4909;42.680;26.324;2023-05-12T05:41:37;99103.47;;;13.77;65.10
9740;BME280;4909;42.680;26.324;2023-05-12T05:44:03;99101.50;;;13.64;65.88
9740;BME280;4909;42.680;26.324;2023-05-12T05:46:30;99096.47;;;13.75;64.25
9740;BME280;4909;42.680;26.324;2023-05-12T05:48:57;99099.59;;;13.66;64.32
9740;BME280;4909;42.680;26.324;2023-05-12T05:51:24;99098.66;;;13.67;63.42
9740;BME280;4909;42.680;26.324;2023-05-12T05:53:51;99099.59;;;13.66;63.04
9740;BME280;4909;42.680;26.324;2023-05-12T05:56:18;99100.41;;;13.85;64.03
9740;BME280;4909;42.680;26.324;2023-05-12T05:58:46;99088.56;;;14.08;63.83
9740;BME280;4909;42.680;26.324;2023-05-12T06:01:13;99099.94;;;14.28;63.37
9740;BME280;4909;42.680;26.324;2023-05-12T06:03:40;99099.41;;;14.22;61.05
9740;BME280;4909;42.680;26.324;2023-05-12T06:06:07;99107.69;;;14.33;61.02
9740;BME280;4909;42.680;26.324;2023-05-12T06:08:33;99095.16;;;14.52;60.40
9740;BME280;4909;42.680;26.324;2023-05-12T06:11:00;99092.56;;;14.51;60.16
9740;BME280;4909;42.680;26.324;2023-05-12T06:13:27;99103.13;;;14.69;61.54
9740;BME280;4909;42.680;26.324;2023-05-12T06:15:55;99100.59;;;14.51;56.33
9740;BME280;4909;42.680;26.324;2023-05-12T06:18:22;99102.38;;;14.50;54.75
9740;BME280;4909;42.680;26.324;2023-05-12T06:20:49;99106.63;;;14.54;53.95
9740;BME280;4909;42.680;26.324;2023-05-12T06:23:16;99058.00;;;14.30;49.89
9740;BME280;4909;42.680;26.324;2023-05-12T06:25:43;99094.06;;;14.56;50.03
9740;BME280;4909;42.680;26.324;2023-05-12T06:28:09;99104.00;;;14.70;47.70
9740;BME280;4909;42.680;26.324;2023-05-12T06:30:36;99102.31;;;14.85;48.03
9740;BME280;4909;42.680;26.324;2023-05-12T06:33:04;99095.25;;;14.99;48.17
9740;BME280;4909;42.680;26.324;2023-05-12T06:35:31;99098.69;;;14.86;46.75
9740;BME280;4909;42.680;26.324;2023-05-12T06:37:58;99104.28;;;14.97;48.16
9740;BME280;4909;42.680;26.324;2023-05-12T06:40:25;99094.69;;;15.10;49.69
9740;BME280;4909;42.680;26.324;2023-05-12T06:42:51;99103.72;;;15.23;47.87
9740;BME280;4909;42.680;26.324;2023-05-12T06:45:18;99102.00;;;15.38;45.68
9740;BME280;4909;42.680;26.324;2023-05-12T06:47:47;99111.91;;;15.36;44.55
9740;BME280;4909;42.680;26.324;2023-05-12T06:50:16;99097.78;;;15.18;45.77
9740;BME280;4909;42.680;26.324;2023-05-12T06:52:43;99104.66;;;15.06;46.12
9740;BME280;4909;42.680;26.324;2023-05-12T06:55:09;99100.31;;;14.88;47.04
9740;BME280;4909;42.680;26.324;2023-05-12T06:57:36;99109.56;;;14.98;47.00
9740;BME280;4909;42.680;26.324;2023-05-12T07:00:04;99107.84;;;14.97;47.89
9740;BME280;4909;42.680;26.324;2023-05-12T07:02:31;99105.38;;;14.77;46.90
9740;BME280;4909;42.680;26.324;2023-05-12T07:04:58;99113.13;;;14.66;48.35
9740;BME280;4909;42.680;26.324;2023-05-12T07:07:27;99111.94;;;14.71;47.52
9740;BME280;4909;42.680;26.324;2023-05-12T07:09:54;99101.09;;;14.57;47.94
9740;BME280;4909;42.680;26.324;2023-05-12T07:12:21;99106.38;;;14.59;49.76
9740;BME280;4909;42.680;26.324;2023-05-12T07:14:47;99112.13;;;14.51;48.79
9740;BME280;4909;42.680;26.324;2023-05-12T07:17:14;99118.34;;;14.52;49.12
9740;BME280;4909;42.680;26.324;2023-05-12T07:19:41;99105.78;;;14.37;48.63
9740;BME280;4909;42.680;26.324;2023-05-12T07:22:08;99121.16;;;14.49;49.49
9740;BME280;4909;42.680;26.324;2023-05-12T07:24:36;99112.03;;;14.53;47.86
9740;BME280;4909;42.680;26.324;2023-05-12T07:27:03;99114.38;;;14.59;48.29
9740;BME280;4909;42.680;26.324;2023-05-12T07:29:30;99104.63;;;14.58;48.56
9740;BME280;4909;42.680;26.324;2023-05-12T07:31:57;99116.94;;;14.77;47.91
9740;BME280;4909;42.680;26.324;2023-05-12T07:34:23;99117.16;;;15.06;48.53
9740;BME280;4909;42.680;26.324;2023-05-12T07:36:50;99112.41;;;15.11;48.39
9740;BME280;4909;42.680;26.324;2023-05-12T07:39:17;99101.84;;;15.09;48.63
9740;BME280;4909;42.680;26.324;2023-05-12T07:41:49;99115.63;;;15.17;50.51
9740;BME280;4909;42.680;26.324;2023-05-12T07:44:17;99100.44;;;15.18;50.93
9740;BME280;4909;42.680;26.324;2023-05-12T07:46:43;99105.63;;;15.37;50.87
9740;BME280;4909;42.680;26.324;2023-05-12T07:49:10;99103.22;;;15.48;51.21
9740;BME280;4909;42.680;26.324;2023-05-12T07:51:37;99110.56;;;15.60;51.84
9740;BME280;4909;42.680;26.324;2023-05-12T07:54:04;99105.53;;;15.70;51.62
9740;BME280;4909;42.680;26.324;2023-05-12T07:56:31;99103.25;;;15.63;53.47
9740;BME280;4909;42.680;26.324;2023-05-12T07:58:59;99105.72;;;15.67;53.46
9740;BME280;4909;42.680;26.324;2023-05-12T08:01:26;99089.06;;;15.77;53.60
9740;BME280;4909;42.680;26.324;2023-05-12T08:03:53;99105.50;;;16.01;54.34
9740;BME280;4909;42.680;26.324;2023-05-12T08:06:20;99091.28;;;16.15;54.63
9740;BME280;4909;42.680;26.324;2023-05-12T08:08:46;99087.19;;;16.37;53.44
9740;BME280;4909;42.680;26.324;2023-05-12T08:11:14;99099.16;;;16.46;52.88
9740;BME280;4909;42.680;26.324;2023-05-12T08:13:40;99101.66;;;16.35;53.08
9740;BME280;4909;42.680;26.324;2023-05-12T08:16:08;99096.66;;;16.29;55.35
9740;BME280;4909;42.680;26.324;2023-05-12T08:18:35;99094.69;;;16.46;54.98
9740;BME280;4909;42.680;26.324;2023-05-12T08:21:03;99087.91;;;16.55;55.48
9740;BME280;4909;42.680;26.324;2023-05-12T08:23:30;99085.84;;;16.60;54.99
9740;BME280;4909;42.680;26.324;2023-05-12T08:25:58;99102.50;;;16.65;54.32
9740;BME280;4909;42.680;26.324;2023-05-12T08:28:25;99087.38;;;16.78;53.88
9740;BME280;4909;42.680;26.324;2023-05-12T08:30:52;99097.03;;;16.95;54.40
9740;BME280;4909;42.680;26.324;2023-05-12T08:33:20;99089.53;;;17.14;54.14
9740;BME280;4909;42.680;26.324;2023-05-12T08:35:47;99088.81;;;17.39;53.84
9740;BME280;4909;42.680;26.324;2023-05-12T08:38:13;99092.63;;;17.63;53.40
9740;BME280;4909;42.680;26.324;2023-05-12T08:40:58;99090.06;;;17.33;52.51
9740;BME280;4909;42.680;26.324;2023-05-12T08:43:37;99090.59;;;17.53;51.42
9740;BME280;4909;42.680;26.324;2023-05-12T08:46:06;99094.34;;;17.64;51.75
9740;BME280;4909;42.680;26.324;2023-05-12T08:48:37;99091.16;;;17.58;52.37
9740;BME280;4909;42.680;26.324;2023-05-12T08:51:05;99085.00;;;17.29;53.60
9740;BME280;4909;42.680;26.324;2023-05-12T08:53:34;99099.13;;;17.18;53.05
9740;BME280;4909;42.680;26.324;2023-05-12T08:56:04;99091.84;;;17.06;52.82
9740;BME280;4909;42.680;26.324;2023-05-12T08:58:31;99082.06;;;17.19;53.66
9740;BME280;4909;42.680;26.324;2023-05-12T09:00:59;99102.34;;;17.23;52.49
9740;BME280;4909;42.680;26.324;2023-05-12T09:03:27;99071.09;;;16.81;53.22
9740;BME280;4909;42.680;26.324;2023-05-12T09:06:00;99105.38;;;16.76;53.51
9740;BME280;4909;42.680;26.324;2023-05-12T09:08:29;99068.63;;;16.64;54.49
9740;BME280;4909;42.680;26.324;2023-05-12T09:10:56;99097.72;;;16.99;54.56
9740;BME280;4909;42.680;26.324;2023-05-12T09:13:28;99071.44;;;17.18;54.32
9740;BME280;4909;42.680;26.324;2023-05-12T09:15:56;99089.63;;;17.54;53.81
9740;BME280;4909;42.680;26.324;2023-05-12T09:18:31;99080.63;;;17.55;53.83
9740;BME280;4909;42.680;26.324;2023-05-12T09:21:08;99086.84;;;17.69;51.87
9740;BME280;4909;42.680;26.324;2023-05-12T09:23:36;99078.66;;;17.44;51.97
9740;BME280;4909;42.680;26.324;2023-05-12T09:26:03;99095.09;;;17.11;52.29
9740;BME280;4909;42.680;26.324;2023-05-12T09:28:34;99093.19;;;17.13;52.61
9740;BME280;4909;42.680;26.324;2023-05-12T09:31:01;99100.66;;;16.80;53.64
9740;BME280;4909;42.680;26.324;2023-05-12T09:33:39;99093.06;;;16.44;55.24
9740;BME280;4909;42.680;26.324;2023-05-12T09:36:06;99076.41;;;16.39;55.88
9740;BME280;4909;42.680;26.324;2023-05-12T09:38:34;99096.47;;;16.46;56.15
9740;BME280;4909;42.680;26.324;2023-05-12T09:41:00;99096.75;;;16.27;57.41
9740;BME280;4909;42.680;26.324;2023-05-12T09:43:27;99106.59;;;16.27;56.77
9740;BME280;4909;42.680;26.324;2023-05-12T09:45:54;99100.44;;;16.40;55.01
9740;BME280;4909;42.680;26.324;2023-05-12T09:48:21;99093.09;;;16.58;53.20
9740;BME280;4909;42.680;26.324;2023-05-12T09:50:49;99101.66;;;16.79;53.70
9740;BME280;4909;42.680;26.324;2023-05-12T09:53:17;99100.28;;;16.72;53.44
9740;BME280;4909;42.680;26.324;2023-05-12T09:55:48;99100.56;;;16.67;54.20
9740;BME280;4909;42.680;26.324;2023-05-12T09:58:16;99102.09;;;16.85;53.76
9740;BME280;4909;42.680;26.324;2023-05-12T10:00:44;99108.81;;;16.64;53.67
9740;BME280;4909;42.680;26.324;2023-05-12T10:03:12;99096.16;;;16.80;54.64
9740;BME280;4909;42.680;26.324;2023-05-12T10:05:45;99090.78;;;16.94;53.98
9740;BME280;4909;42.680;26.324;2023-05-12T10:08:18;99094.06;;;17.00;53.02
9740;BME280;4909;42.680;26.324;2023-05-12T10:10:47;99094.25;;;16.68;52.63
9740;BME280;4909;42.680;26.324;2023-05-12T10:13:16;99064.25;;;16.33;53.41
9740;BME280;4909;42.680;26.324;2023-05-12T10:15:45;99078.75;;;16.59;53.47
9740;BME280;4909;42.680;26.324;2023-05-12T10:18:14;99093.44;;;16.52;53.19
9740;BME280;4909;42.680;26.324;2023-05-12T10:20:42;99078.38;;;16.65;54.24
9740;BME280;4909;42.680;26.324;2023-05-12T10:23:11;99102.09;;;17.00;55.25
9740;BME280;4909;42.680;26.324;2023-05-12T10:25:39;99105.34;;;16.90;52.53
9740;BME280;4909;42.680;26.324;2023-05-12T10:28:08;99092.66;;;16.94;54.53
9740;BME280;4909;42.680;26.324;2023-05-12T10:30:36;99095.78;;;17.01;52.56
9740;BME280;4909;42.680;26.324;2023-05-12T10:33:04;99087.53;;;16.89;53.00
9740;BME280;4909;42.680;26.324;2023-05-12T10:35:33;99100.41;;;16.99;52.88
9740;BME280;4909;42.680;26.324;2023-05-12T10:38:01;99090.91;;;16.93;53.09
9740;BME280;4909;42.680;26.324;2023-05-12T10:40:29;99089.94;;;17.08;55.15
9740;BME280;4909;42.680;26.324;2023-05-12T10:42:57;99091.06;;;17.04;51.88
9740;BME280;4909;42.680;26.324;2023-05-12T10:45:26;99092.06;;;17.03;53.17
9740;BME280;4909;42.680;26.324;2023-05-12T10:48:04;99039.50;;;16.72;52.12
9740;BME280;4909;42.680;26.324;2023-05-12T10:50:31;99074.06;;;16.91;52.10
9740;BME280;4909;42.680;26.324;2023-05-12T10:52:58;99070.22;;;16.95;52.89
9740;BME280;4909;42.680;26.324;2023-05-12T10:55:32;99068.22;;;16.99;53.24
9740;BME280;4909;42.680;26.324;2023-05-12T10:58:08;99054.59;;;17.02;52.51
9740;BME280;4909;42.680;26.324;2023-05-12T11:00:46;99054.56;;;17.16;52.44
9740;BME280;4909;42.680;26.324;2023-05-12T11:03:16;99066.50;;;17.38;51.39
9740;BME280;4909;42.680;26.324;2023-05-12T11:05:43;99055.09;;;17.35;51.56
9740;BME280;4909;42.680;26.324;2023-05-12T11:08:11;99066.44;;;17.26;51.98
9740;BME280;4909;42.680;26.324;2023-05-12T11:10:40;99068.72;;;17.32;52.23
9740;BME280;4909;42.680;26.324;2023-05-12T11:13:07;99063.97;;;17.23;53.29
9740;BME280;4909;42.680;26.324;2023-05-12T11:15:35;99069.13;;;17.26;52.88
9740;BME280;4909;42.680;26.324;2023-05-12T11:18:04;99059.72;;;17.19;54.36
9740;BME280;4909;42.680;26.324;2023-05-12T11:20:30;99074.84;;;17.34;53.92
9740;BME280;4909;42.680;26.324;2023-05-12T11:22:57;99080.72;;;17.26;52.07
9740;BME280;4909;42.680;26.324;2023-05-12T11:25:25;99084.66;;;17.21;52.51
9740;BME280;4909;42.680;26.324;2023-05-12T11:27:52;99091.75;;;17.22;52.31
9740;BME280;4909;42.680;26.324;2023-05-12T11:30:19;99062.00;;;16.98;52.17
9740;BME280;4909;42.680;26.324;2023-05-12T11:32:46;99072.31;;;17.18;52.59
9740;BME280;4909;42.680;26.324;2023-05-12T11:35:16;99060.91;;;17.01;51.58
9740;BME280;4909;42.680;26.324;2023-05-12T11:37:44;99075.16;;;17.15;53.66
9740;BME280;4909;42.680;26.324;2023-05-12T11:40:13;99074.59;;;17.10;50.67
9740;BME280;4909;42.680;26.324;2023-05-12T11:42:40;99084.75;;;17.19;52.70
9740;BME280;4909;42.680;26.324;2023-05-12T11:45:18;99069.75;;;17.03;52.01
9740;BME280;4909;42.680;26.324;2023-05-12T11:47:45;99075.28;;;17.00;52.46
9740;BME280;4909;42.680;26.324;2023-05-12T11:50:20;99074.91;;;17.06;51.39
9740;BME280;4909;42.680;26.324;2023-05-12T11:52:47;99079.06;;;17.24;50.63
9740;BME280;4909;42.680;26.324;2023-05-12T11:55:19;99075.91;;;17.31;51.86
9740;BME280;4909;42.680;26.324;2023-05-12T11:57:55;99057.22;;;17.30;51.15
9740;BME280;4909;42.680;26.324;2023-05-12T12:00:30;99074.41;;;17.27;49.92
9740;BME280;4909;42.680;26.324;2023-05-12T12:03:08;99038.88;;;17.10;50.50
9740;BME280;4909;42.680;26.324;2023-05-12T12:05:37;99071.19;;;17.35;52.25
9740;BME280;4909;42.680;26.324;2023-05-12T12:08:06;99053.78;;;17.28;50.55
9740;BME280;4909;42.680;26.324;2023-05-12T12:10:33;99053.09;;;17.24;50.08
9740;BME280;4909;42.680;26.324;2023-05-12T12:13:00;99062.16;;;17.50;50.79
9740;BME280;4909;42.680;26.324;2023-05-12T12:15:27;99059.69;;;17.47;49.26
9740;BME280;4909;42.680;26.324;2023-05-12T12:17:55;99029.09;;;17.23;49.23
9740;BME280;4909;42.680;26.324;2023-05-12T12:20:21;99043.06;;;17.55;49.94
9740;BME280;4909;42.680;26.324;2023-05-12T12:22:51;99036.81;;;17.54;48.93
9740;BME280;4909;42.680;26.324;2023-05-12T12:25:18;99050.22;;;17.68;49.70
9740;BME280;4909;42.680;26.324;2023-05-12T12:27:45;99035.09;;;17.53;48.56
9740;BME280;4909;42.680;26.324;2023-05-12T12:30:13;99049.78;;;17.21;47.74
9740;BME280;4909;42.680;26.324;2023-05-12T12:32:41;99039.66;;;17.12;49.68
9740;BME280;4909;42.680;26.324;2023-05-12T12:35:08;99045.94;;;17.25;49.71
9740;BME280;4909;42.680;26.324;2023-05-12T12:37:36;99034.06;;;17.15;48.51
9740;BME280;4909;42.680;26.324;2023-05-12T12:40:05;99047.66;;;17.26;48.37
9740;BME280;4909;42.680;26.324;2023-05-12T12:42:35;99033.69;;;17.21;48.61
9740;BME280;4909;42.680;26.324;2023-05-12T12:45:03;99034.84;;;17.17;48.74
9740;BME280;4909;42.680;26.324;2023-05-12T12:47:30;99034.75;;;17.18;48.13
9740;BME280;4909;42.680;26.324;2023-05-12T12:49:57;99043.16;;;17.26;47.95
9740;BME280;4909;42.680;26.324;2023-05-12T12:52:24;99022.09;;;17.20;47.99
9740;BME280;4909;42.680;26.324;2023-05-12T12:54:51;99042.84;;;17.31;48.53
9740;BME280;4909;42.680;26.324;2023-05-12T12:57:19;99037.41;;;17.32;46.74
9740;BME280;4909;42.680;26.324;2023-05-12T12:59:46;99011.09;;;17.11;47.16
9740;BME280;4909;42.680;26.324;2023-05-12T13:02:13;99036.22;;;17.36;46.00
9740;BME280;4909;42.680;26.324;2023-05-12T13:04:40;99031.09;;;17.19;46.38
9740;BME280;4909;42.680;26.324;2023-05-12T13:07:07;99041.38;;;17.13;46.39
9740;BME280;4909;42.680;26.324;2023-05-12T13:09:34;99051.28;;;17.25;46.19
9740;BME280;4909;42.680;26.324;2023-05-12T13:12:01;98989.13;;;16.91;46.46
9740;BME280;4909;42.680;26.324;2023-05-12T13:14:29;99030.81;;;17.10;46.32
9740;BME280;4909;42.680;26.324;2023-05-12T13:16:56;99035.50;;;17.20;46.50